Time;durP1;ratioP1;P1;durP2;ratioP2;P2;SDS_P1;SDS_P2;PMS_P1;PMS_P2;Temp;Humidity;BMP_temperature;BMP_pressure;BME280_temperature;BME280_humidity;BME280_pressure;Samples;Min_cycle;Max_cycle;Signal;HPM_P1;HPM_P2
2022/06/12 00:02:18;;;;;;;8.68;2.90;;;12.30;99.90;;;;;;5036066;28;20041;-84
2022/06/12 00:04:43;;;;;;;7.63;2.60;;;12.30;99.90;;;;;;5070203;28;20135;-83
2022/06/12 00:07:09;;;;;;;5.68;2.55;;;12.20;99.90;;;;;;5072126;28;20051;-83
2022/06/12 00:09:35;;;;;;;5.80;2.58;;;12.30;99.90;;;;;;5054760;28;20041;-85
2022/06/12 00:12:00;;;;;;;5.85;2.60;;;12.30;99.90;;;;;;5062428;28;20134;-83
2022/06/12 00:14:26;;;;;;;4.68;2.53;;;12.40;99.90;;;;;;5067072;28;20063;-85
2022/06/12 00:16:54;;;;;;;6.35;2.10;;;12.40;99.90;;;;;;5071151;28;20048;-85
2022/06/12 00:19:20;;;;;;;5.80;1.83;;;12.30;99.90;;;;;;5033047;28;20041;-85
2022/06/12 00:21:46;;;;;;;6.10;2.10;;;12.30;99.90;;;;;;5068641;28;20132;-85
2022/06/12 00:24:16;;;;;;;6.45;2.55;;;12.30;99.90;;;;;;5061658;28;20048;-86
2022/06/12 00:26:51;;;;;;;5.72;2.30;;;12.30;99.90;;;;;;5067382;28;20060;-85
2022/06/12 00:29:29;;;;;;;4.55;2.22;;;12.30;99.90;;;;;;5071710;28;20059;-85
2022/06/12 00:32:12;;;;;;;5.43;2.40;;;12.30;99.90;;;;;;5066312;28;20063;-84
2022/06/12 00:34:50;;;;;;;4.43;2.08;;;12.20;99.90;;;;;;5063869;28;20053;-84
2022/06/12 00:37:19;;;;;;;5.50;2.40;;;12.30;99.90;;;;;;5061561;28;20048;-85
2022/06/12 00:39:46;;;;;;;8.00;2.60;;;12.20;99.90;;;;;;5071942;28;20048;-85
2022/06/12 00:42:33;;;;;;;7.25;2.85;;;12.30;99.90;;;;;;5071506;28;20044;-85
2022/06/12 00:45:01;;;;;;;7.47;2.80;;;12.30;99.90;;;;;;5048365;28;20156;-86
2022/06/12 00:47:27;;;;;;;6.65;3.40;;;12.20;99.90;;;;;;5055096;28;20088;-85
2022/06/12 00:50:05;;;;;;;7.85;3.00;;;12.20;99.90;;;;;;5046430;28;20055;-85
2022/06/12 00:52:47;;;;;;;7.43;2.80;;;12.10;99.90;;;;;;5051242;28;20048;-84
2022/06/12 00:55:24;;;;;;;6.90;2.97;;;12.10;99.90;;;;;;5055672;28;20071;-85
2022/06/12 00:57:56;;;;;;;9.05;3.00;;;12.10;99.90;;;;;;5070477;28;20087;-84
2022/06/12 01:00:23;;;;;;;7.38;3.22;;;12.10;99.90;;;;;;5061548;28;20085;-86
2022/06/12 01:02:49;;;;;;;7.05;2.97;;;12.10;99.90;;;;;;5066810;28;20059;-87
2022/06/12 01:08:06;;;;;;;7.47;2.78;;;12.20;99.90;;;;;;5059978;28;20061;-89
2022/06/12 01:10:33;;;;;;;7.07;2.63;;;12.20;99.90;;;;;;5070752;28;20481;-88
2022/06/12 01:13:04;;;;;;;6.60;2.40;;;12.30;99.90;;;;;;5054385;28;20135;-87
2022/06/12 01:15:35;;;;;;;5.95;2.38;;;12.40;99.90;;;;;;5064611;28;20068;-86
2022/06/12 01:18:01;;;;;;;4.90;2.60;;;12.40;99.90;;;;;;5066180;28;20083;-85
2022/06/12 01:20:37;;;;;;;5.30;2.50;;;12.40;99.90;;;;;;5058334;28;20500;-86
2022/06/12 01:23:43;;;;;;;9.57;2.90;;;12.40;99.90;;;;;;5057352;28;20401;-85
2022/06/12 01:26:40;;;;;;;7.70;2.63;;;12.30;99.90;;;;;;5036869;28;20056;-84
2022/06/12 01:29:12;;;;;;;9.15;2.75;;;12.20;99.90;;;;;;5010294;28;20057;-84
2022/06/12 01:32:03;;;;;;;6.68;2.85;;;12.10;99.90;;;;;;5050890;28;20057;-85
2022/06/12 01:34:34;;;;;;;8.30;2.95;;;12.10;99.90;;;;;;5037518;28;20091;-85
2022/06/12 01:37:17;;;;;;;8.90;2.75;;;11.90;99.90;;;;;;5069516;28;20052;-85
2022/06/12 01:39:57;;;;;;;7.93;3.17;;;11.80;99.90;;;;;;5054670;28;20060;-87
2022/06/12 01:42:27;;;;;;;7.65;2.90;;;11.80;99.90;;;;;;5066749;28;20504;-85
2022/06/12 01:45:28;;;;;;;5.65;3.10;;;11.70;99.90;;;;;;5043152;28;20060;-85
2022/06/12 01:48:02;;;;;;;6.32;3.20;;;11.80;99.90;;;;;;5077315;28;20045;-85
2022/06/12 01:50:34;;;;;;;7.18;3.60;;;11.80;99.90;;;;;;5069695;28;20045;-85
2022/06/12 01:53:11;;;;;;;5.95;3.20;;;11.80;99.90;;;;;;5053696;28;20504;-85
2022/06/12 01:55:50;;;;;;;8.05;3.03;;;11.80;99.90;;;;;;5053374;28;20480;-85
2022/06/12 01:58:46;;;;;;;7.45;3.10;;;11.80;99.90;;;;;;5077611;28;20059;-85
2022/06/12 02:01:22;;;;;;;5.57;3.10;;;11.90;99.90;;;;;;5069340;28;20047;-84
2022/06/12 02:03:55;;;;;;;4.75;2.65;;;11.90;99.90;;;;;;5059697;28;20051;-84
2022/06/12 02:06:31;;;;;;;8.63;3.20;;;11.90;99.90;;;;;;5088574;28;20044;-85
2022/06/12 02:09:06;;;;;;;4.78;2.70;;;11.90;99.90;;;;;;5074626;28;20560;-84
2022/06/12 02:15:03;;;;;;;6.97;2.58;;;12.00;99.90;;;;;;5062285;28;20056;-84
2022/06/12 02:18:01;;;;;;;4.40;2.50;;;12.00;99.90;;;;;;5066250;28;20647;-86
2022/06/12 02:20:34;;;;;;;5.70;2.45;;;12.10;99.90;;;;;;5047616;28;20481;-86
2022/06/12 02:23:06;;;;;;;4.93;2.40;;;12.10;99.90;;;;;;5054501;28;20119;-85
2022/06/12 02:25:36;;;;;;;4.80;2.42;;;12.10;99.90;;;;;;5065444;28;20048;-84
2022/06/12 02:28:15;;;;;;;3.97;2.30;;;12.00;99.90;;;;;;5059972;28;20052;-84
2022/06/12 02:30:45;;;;;;;6.18;2.50;;;12.00;99.90;;;;;;5076561;28;20047;-84
2022/06/12 02:33:20;;;;;;;4.00;1.98;;;11.90;99.90;;;;;;5057406;28;20075;-85
2022/06/12 02:35:51;;;;;;;5.43;2.70;;;11.90;99.90;;;;;;5069576;28;20044;-85
2022/06/12 02:38:29;;;;;;;5.03;2.00;;;11.90;99.90;;;;;;5053305;28;20045;-85
2022/06/12 02:40:59;;;;;;;7.22;2.00;;;11.90;99.90;;;;;;5040984;28;20508;-84
2022/06/12 02:43:29;;;;;;;7.55;2.50;;;11.90;99.90;;;;;;5057035;28;20068;-84
2022/06/12 02:46:00;;;;;;;4.43;2.15;;;11.90;99.90;;;;;;5066368;28;20043;-84
2022/06/12 02:48:27;;;;;;;6.07;2.15;;;11.90;99.90;;;;;;5091558;28;20064;-84
2022/06/12 02:51:14;;;;;;;6.63;2.35;;;11.80;99.90;;;;;;5066456;28;20051;-85
2022/06/12 02:54:11;;;;;;;6.53;2.28;;;11.80;99.90;;;;;;5058264;28;20101;-84
2022/06/12 02:57:25;;;;;;;6.10;2.42;;;11.80;99.90;;;;;;5041258;28;20052;-85
2022/06/12 03:00:16;;;;;;;6.72;2.70;;;11.80;99.90;;;;;;5058475;28;20584;-84
2022/06/12 03:02:53;;;;;;;5.78;2.70;;;11.80;99.90;;;;;;5053124;28;20048;-85
2022/06/12 03:05:35;;;;;;;3.97;2.25;;;11.70;99.90;;;;;;5076328;28;20048;-86
2022/06/12 03:08:16;;;;;;;5.68;2.55;;;11.70;99.90;;;;;;5036377;28;20048;-85
2022/06/12 03:10:53;;;;;;;6.28;2.13;;;11.70;99.90;;;;;;5083507;28;20051;-87
2022/06/12 03:13:20;;;;;;;7.78;2.40;;;11.80;99.90;;;;;;5061398;28;20044;-85
2022/06/12 03:15:53;;;;;;;5.72;2.00;;;11.80;99.90;;;;;;5061787;28;20503;-85
2022/06/12 03:18:24;;;;;;;4.80;2.20;;;11.80;99.90;;;;;;5063382;28;20093;-86
2022/06/12 03:21:08;;;;;;;4.43;2.15;;;11.80;99.90;;;;;;5064746;28;20489;-84
2022/06/12 03:23:43;;;;;;;3.88;1.92;;;11.80;99.90;;;;;;5061178;28;20055;-86
2022/06/12 03:26:21;;;;;;;6.47;1.77;;;11.80;99.90;;;;;;5073799;28;20051;-84
2022/06/12 03:29:19;;;;;;;4.35;1.90;;;11.80;99.90;;;;;;5053885;28;20556;-84
2022/06/12 03:32:04;;;;;;;5.03;2.30;;;11.90;99.90;;;;;;5024805;28;20048;-87
2022/06/12 03:34:50;;;;;;;8.32;2.10;;;11.90;99.90;;;;;;5055944;28;20181;-86
2022/06/12 03:37:25;;;;;;;5.95;1.90;;;11.90;99.90;;;;;;5055394;28;20056;-85
2022/06/12 03:40:15;;;;;;;4.65;2.10;;;11.90;99.90;;;;;;5078353;28;20085;-83
2022/06/12 03:42:47;;;;;;;8.18;2.50;;;11.90;99.90;;;;;;5071739;28;20162;-84
2022/06/12 03:45:39;;;;;;;4.53;1.83;;;11.90;99.90;;;;;;5061016;28;20127;-84
2022/06/12 03:48:18;;;;;;;8.70;2.15;;;11.90;99.90;;;;;;5053058;28;20107;-84
2022/06/12 03:51:14;;;;;;;5.15;1.88;;;11.90;99.90;;;;;;5053185;28;20050;-85
2022/06/12 03:54:10;;;;;;;6.23;2.00;;;11.90;99.90;;;;;;5084707;28;20109;-87
2022/06/12 03:59:38;;;;;;;6.28;1.83;;;11.90;99.90;;;;;;5059755;28;20055;-87
2022/06/12 04:02:06;;;;;;;4.53;2.35;;;12.00;99.90;;;;;;5072311;28;20048;-86
2022/06/12 04:04:34;;;;;;;6.38;2.10;;;12.10;99.90;;;;;;5086816;28;20572;-85
2022/06/12 04:07:04;;;;;;;5.20;2.10;;;12.10;99.90;;;;;;5065238;28;20044;-87
2022/06/12 04:09:34;;;;;;;4.60;2.13;;;12.20;99.90;;;;;;5068405;28;20063;-85
2022/06/12 04:12:04;;;;;;;7.70;2.08;;;12.20;99.90;;;;;;5059177;28;20105;-85
2022/06/12 04:14:34;;;;;;;5.32;2.17;;;12.20;99.90;;;;;;5065226;28;20083;-86
2022/06/12 04:17:02;;;;;;;6.95;2.65;;;12.20;99.90;;;;;;5052416;28;20059;-85
2022/06/12 04:19:29;;;;;;;5.13;2.33;;;12.30;99.90;;;;;;5066826;28;20032;-86
2022/06/12 04:22:04;;;;;;;5.40;2.03;;;12.30;99.90;;;;;;5068897;28;20135;-89
2022/06/12 04:24:48;;;;;;;5.30;2.08;;;12.30;99.90;;;;;;5077000;28;20063;-85
2022/06/12 04:27:25;;;;;;;5.03;2.55;;;12.40;99.90;;;;;;5055610;28;20127;-85
2022/06/12 04:29:57;;;;;;;4.80;2.42;;;12.40;99.90;;;;;;5064985;28;20058;-87
2022/06/12 04:32:24;;;;;;;4.80;2.20;;;12.40;99.90;;;;;;5090058;28;20077;-85
2022/06/12 04:34:51;;;;;;;7.32;2.33;;;12.50;99.90;;;;;;5045611;28;20044;-84
2022/06/12 04:37:23;;;;;;;5.53;2.85;;;12.60;99.90;;;;;;5063564;28;20059;-88
2022/06/12 04:39:50;;;;;;;5.75;2.50;;;12.60;99.90;;;;;;5082994;28;20043;-87
2022/06/12 04:42:22;;;;;;;7.70;2.53;;;12.70;99.90;;;;;;5059833;28;20127;-87
2022/06/12 04:44:48;;;;;;;7.63;2.28;;;12.80;99.90;;;;;;5082805;28;20457;-86
2022/06/12 04:47:18;;;;;;;4.25;2.33;;;12.80;99.90;;;;;;5087278;28;20036;-84
2022/06/12 04:49:44;;;;;;;4.70;2.00;;;12.90;99.90;;;;;;5080094;28;20079;-89
2022/06/12 04:52:11;;;;;;;7.18;2.25;;;12.90;99.90;;;;;;5083763;28;20082;-87
2022/06/12 04:54:39;;;;;;;6.00;2.33;;;13.00;99.90;;;;;;5084598;28;20059;-87
2022/06/12 04:57:08;;;;;;;5.18;2.10;;;13.10;99.90;;;;;;5074695;28;20048;-88
2022/06/12 04:59:35;;;;;;;6.65;2.33;;;13.20;99.90;;;;;;5058491;28;20124;-87
2022/06/12 05:02:01;;;;;;;6.63;2.20;;;13.30;99.90;;;;;;5059828;28;20113;-87
2022/06/12 05:04:28;;;;;;;6.45;2.03;;;13.30;99.90;;;;;;5065100;28;20051;-84
2022/06/12 05:06:54;;;;;;;4.72;1.80;;;13.40;99.90;;;;;;5061666;28;20492;-87
2022/06/12 05:09:24;;;;;;;8.05;2.33;;;13.40;99.90;;;;;;5066164;28;20087;-88
2022/06/12 05:11:51;;;;;;;5.72;2.28;;;13.50;99.90;;;;;;5047774;28;20047;-84
2022/06/12 05:14:16;;;;;;;4.72;2.10;;;13.60;99.90;;;;;;5059333;28;20045;-85
2022/06/12 05:16:52;;;;;;;5.43;2.05;;;13.60;99.90;;;;;;5058345;28;20411;-87
2022/06/12 05:19:21;;;;;;;6.90;2.38;;;13.70;99.90;;;;;;5062250;28;20054;-88
2022/06/12 05:21:47;;;;;;;5.53;2.72;;;13.80;99.90;;;;;;5084195;28;20115;-84
2022/06/12 05:24:13;;;;;;;5.63;2.53;;;13.80;99.90;;;;;;5074370;28;20051;-86
2022/06/12 05:26:42;;;;;;;4.95;2.13;;;13.90;99.90;;;;;;5055568;28;20044;-87
2022/06/12 05:29:13;;;;;;;5.25;2.20;;;14.00;99.90;;;;;;5067706;28;20060;-88
2022/06/12 05:31:39;;;;;;;6.82;2.47;;;14.10;99.90;;;;;;5066624;28;20044;-85
2022/06/12 05:34:05;;;;;;;6.22;2.25;;;14.20;99.90;;;;;;5070142;28;20045;-86
2022/06/12 05:36:31;;;;;;;8.98;2.83;;;14.20;99.90;;;;;;5062077;28;20047;-85
2022/06/12 05:38:57;;;;;;;6.93;2.50;;;14.30;99.90;;;;;;5066122;28;20058;-85
2022/06/12 05:41:22;;;;;;;7.07;2.50;;;14.40;99.90;;;;;;5065329;28;20408;-84
2022/06/12 05:43:48;;;;;;;6.70;2.20;;;14.40;99.90;;;;;;5058782;28;20115;-82
2022/06/12 05:46:16;;;;;;;7.93;2.40;;;14.50;99.90;;;;;;5065674;28;20542;-87
2022/06/12 05:48:43;;;;;;;9.13;2.38;;;14.50;99.90;;;;;;5070664;28;20036;-86
2022/06/12 05:51:13;;;;;;;7.57;2.65;;;14.50;99.90;;;;;;5043425;28;20044;-85
2022/06/12 05:53:39;;;;;;;4.88;2.30;;;14.60;99.90;;;;;;5053349;28;20389;-85
2022/06/12 05:56:10;;;;;;;5.90;2.08;;;14.70;99.90;;;;;;5083047;28;20055;-86
2022/06/12 05:58:36;;;;;;;6.93;2.53;;;14.80;99.90;;;;;;5069266;28;20057;-85
2022/06/12 06:01:05;;;;;;;5.78;2.45;;;14.90;99.90;;;;;;5063320;28;20063;-87
2022/06/12 06:03:31;;;;;;;5.00;2.55;;;14.90;99.90;;;;;;5070216;28;20056;-85
2022/06/12 06:05:56;;;;;;;6.22;2.65;;;15.00;99.90;;;;;;5050094;28;20053;-87
2022/06/12 06:08:22;;;;;;;7.47;2.65;;;15.10;99.90;;;;;;5050794;28;20052;-86
2022/06/12 06:10:48;;;;;;;6.40;2.40;;;15.10;99.90;;;;;;5049714;28;20079;-87
2022/06/12 06:13:14;;;;;;;7.68;2.60;;;15.20;99.90;;;;;;5056984;28;20097;-88
2022/06/12 06:15:40;;;;;;;7.90;2.70;;;15.20;99.90;;;;;;5037003;28;20055;-87
2022/06/12 06:18:07;;;;;;;9.73;3.53;;;15.30;99.90;;;;;;5062558;28;20501;-86
2022/06/12 06:20:35;;;;;;;8.07;2.90;;;15.40;99.90;;;;;;5064784;28;20469;-84
2022/06/12 06:23:01;;;;;;;8.63;2.75;;;15.40;99.90;;;;;;5055453;28;20370;-85
2022/06/12 06:25:29;;;;;;;11.55;3.00;;;15.40;99.90;;;;;;5047222;28;20190;-88
2022/06/12 06:27:55;;;;;;;6.78;3.50;;;15.50;99.90;;;;;;5049759;28;20396;-83
2022/06/12 06:30:23;;;;;;;10.15;3.05;;;15.60;99.90;;;;;;5066662;28;20052;-86
2022/06/12 06:32:49;;;;;;;8.50;3.50;;;15.70;99.90;;;;;;5035730;28;20049;-85
2022/06/12 06:35:15;;;;;;;6.13;2.67;;;15.80;99.90;;;;;;5049988;28;20049;-87
2022/06/12 06:37:41;;;;;;;10.48;3.00;;;15.90;99.90;;;;;;5066608;28;20052;-86
2022/06/12 06:40:10;;;;;;;9.82;3.38;;;15.90;99.90;;;;;;5061036;28;20102;-85
2022/06/12 06:42:36;;;;;;;10.32;4.32;;;16.00;99.90;;;;;;5066824;28;20088;-85
2022/06/12 06:47:46;;;;;;;7.53;3.17;;;15.90;99.90;;;;;;5051366;28;20064;-73
2022/06/12 06:50:14;;;;;;;8.00;3.05;;;15.80;99.90;;;;;;5070240;28;20048;-73
2022/06/12 06:52:40;;;;;;;12.73;3.30;;;15.90;99.90;;;;;;5069456;28;20048;-73
2022/06/12 06:55:07;;;;;;;7.90;2.80;;;16.00;99.90;;;;;;5070483;28;20076;-73
2022/06/12 06:57:36;;;;;;;9.63;3.45;;;16.10;99.90;;;;;;5061630;28;20060;-74
2022/06/12 07:00:05;;;;;;;12.38;3.75;;;16.20;99.90;;;;;;5057913;28;20044;-73
2022/06/12 07:02:31;;;;;;;12.15;3.80;;;16.30;99.90;;;;;;5067891;28;20045;-73
2022/06/12 07:04:58;;;;;;;8.32;3.35;;;16.30;99.90;;;;;;5069366;28;20614;-74
2022/06/12 07:07:23;;;;;;;11.98;3.50;;;16.30;99.90;;;;;;5069519;28;20045;-73
2022/06/12 07:09:49;;;;;;;12.57;3.95;;;16.40;99.90;;;;;;5063950;28;20048;-74
2022/06/12 07:12:15;;;;;;;8.27;3.97;;;16.50;99.90;;;;;;5074317;28;20109;-73
2022/06/12 07:14:41;;;;;;;10.82;3.28;;;16.50;99.90;;;;;;5063080;28;20164;-74
2022/06/12 07:17:08;;;;;;;10.80;3.90;;;16.60;99.90;;;;;;5069731;28;20056;-74
2022/06/12 07:19:33;;;;;;;10.82;3.80;;;16.70;99.90;;;;;;5072302;28;20436;-73
2022/06/12 07:21:59;;;;;;;8.50;3.70;;;16.80;99.90;;;;;;5073514;28;20070;-73
2022/06/12 07:24:25;;;;;;;12.15;4.03;;;16.80;99.90;;;;;;5073727;28;20445;-72
2022/06/12 07:26:51;;;;;;;11.85;3.53;;;17.00;99.90;;;;;;5071801;28;20041;-72
2022/06/12 07:29:19;;;;;;;11.10;3.55;;;17.00;99.90;;;;;;5055673;28;20098;-73
2022/06/12 07:31:47;;;;;;;9.95;3.35;;;17.10;99.90;;;;;;5059594;28;20111;-73
2022/06/12 07:34:13;;;;;;;14.00;3.95;;;17.10;99.90;;;;;;5059529;28;20052;-76
2022/06/12 07:36:41;;;;;;;10.73;4.22;;;17.10;99.90;;;;;;5063338;28;20101;-75
2022/06/12 07:39:11;;;;;;;12.10;4.28;;;17.20;99.90;;;;;;5054574;28;20045;-77
2022/06/12 07:41:37;;;;;;;9.48;3.72;;;17.30;99.90;;;;;;5068861;28;20519;-77
2022/06/12 07:44:04;;;;;;;12.15;4.22;;;17.30;99.90;;;;;;5067228;28;20083;-74
2022/06/12 07:46:30;;;;;;;9.50;3.67;;;17.30;99.90;;;;;;5072397;28;20044;-74
2022/06/12 07:48:56;;;;;;;13.30;4.00;;;17.40;99.90;;;;;;5069491;28;20047;-74
2022/06/12 07:51:22;;;;;;;9.77;3.50;;;17.50;99.90;;;;;;5065293;28;20489;-74
2022/06/12 07:53:50;;;;;;;9.43;3.30;;;17.60;99.90;;;;;;5071770;28;20040;-74
2022/06/12 07:56:17;;;;;;;12.07;3.97;;;17.70;99.90;;;;;;5073973;28;20405;-74
2022/06/12 07:58:45;;;;;;;10.00;3.75;;;17.70;99.90;;;;;;5080886;28;20052;-73
2022/06/12 08:01:13;;;;;;;10.93;3.45;;;17.80;99.90;;;;;;5071580;28;20048;-76
2022/06/12 08:03:39;;;;;;;7.90;3.15;;;17.80;99.90;;;;;;5093507;28;20048;-75
2022/06/12 08:06:05;;;;;;;10.25;3.45;;;17.90;99.90;;;;;;5087908;28;20491;-75
2022/06/12 08:08:31;;;;;;;12.02;4.32;;;17.90;99.90;;;;;;5075321;28;20054;-77
2022/06/12 08:10:57;;;;;;;11.70;3.92;;;18.00;99.90;;;;;;5058233;28;20141;-77
2022/06/12 08:13:26;;;;;;;7.50;3.55;;;18.00;99.90;;;;;;5079528;28;20122;-77
2022/06/12 08:15:53;;;;;;;10.02;4.07;;;18.00;99.90;;;;;;5069335;28;20173;-77
2022/06/12 08:18:19;;;;;;;8.70;3.50;;;18.20;99.90;;;;;;5075468;28;20073;-77
2022/06/12 08:20:50;;;;;;;8.05;3.40;;;18.20;99.90;;;;;;5086271;28;20094;-75
2022/06/12 08:23:29;;;;;;;11.70;3.25;;;18.30;99.90;;;;;;5089800;28;20051;-74
2022/06/12 08:26:14;;;;;;;9.43;3.28;;;18.30;99.90;;;;;;5073193;28;20807;-73
2022/06/12 08:28:46;;;;;;;7.85;3.30;;;18.40;99.90;;;;;;5088854;28;20048;-73
2022/06/12 08:31:16;;;;;;;8.02;3.13;;;18.40;99.90;;;;;;5074102;28;20048;-72
2022/06/12 08:33:46;;;;;;;8.15;3.00;;;18.50;99.90;;;;;;5085122;28;20069;-73
2022/06/12 08:36:14;;;;;;;9.07;3.65;;;18.50;99.90;;;;;;5092317;28;20522;-71
2022/06/12 08:38:41;;;;;;;13.10;3.53;;;18.60;99.90;;;;;;5075947;28;20119;-72
2022/06/12 08:41:30;;;;;;;8.82;3.78;;;18.80;99.90;;;;;;5078190;28;20052;-73
2022/06/12 08:44:14;;;;;;;9.70;3.25;;;18.90;99.90;;;;;;5069228;28;20048;-72
2022/06/12 08:46:59;;;;;;;8.77;3.05;;;18.90;99.90;;;;;;5083512;28;20500;-73
2022/06/12 08:49:48;;;;;;;10.07;3.80;;;18.90;99.90;;;;;;5089827;28;20047;-81
2022/06/12 08:52:32;;;;;;;7.53;3.05;;;18.80;99.90;;;;;;5058884;28;20053;-76
2022/06/12 08:55:01;;;;;;;8.38;3.20;;;18.70;99.90;;;;;;5059913;28;20449;-76
2022/06/12 08:58:07;;;;;;;9.75;3.35;;;18.80;99.90;;;;;;5087150;28;20080;-76
2022/06/12 09:00:36;;;;;;;11.63;3.70;;;18.80;99.90;;;;;;5043998;28;20056;-77
2022/06/12 09:03:04;;;;;;;7.47;3.58;;;18.80;99.90;;;;;;5092554;28;20487;-76
2022/06/12 09:05:47;;;;;;;10.38;3.50;;;18.80;99.90;;;;;;5077712;28;20041;-76
2022/06/12 09:08:39;;;;;;;10.13;3.40;;;18.90;99.90;;;;;;5073460;28;20709;-76
2022/06/12 09:11:15;;;;;;;10.50;3.50;;;19.10;99.90;;;;;;5053253;28;20040;-76
2022/06/12 09:13:41;;;;;;;;;;;19.20;99.90;;;;;;5092219;28;20051;-77
2022/06/12 09:16:35;;;;;;;8.07;2.40;;;19.30;99.90;;;;;;5073239;28;20492;-75
2022/06/12 09:19:30;;;;;;;8.57;2.45;;;19.30;99.90;;;;;;5087587;28;20036;-76
2022/06/12 09:22:09;;;;;;;8.98;3.47;;;19.30;99.90;;;;;;5089819;28;20056;-76
2022/06/12 09:25:15;;;;;;;7.80;2.90;;;19.40;99.90;;;;;;5074204;28;20047;-76
2022/06/12 09:28:03;;;;;;;6.60;3.00;;;19.40;99.90;;;;;;5044205;28;20063;-76
2022/06/12 09:30:37;;;;;;;9.40;3.40;;;19.50;99.90;;;;;;5059256;28;20070;-76
2022/06/12 09:33:23;;;;;;;9.60;3.70;;;19.60;99.90;;;;;;5071634;28;20098;-76
2022/06/12 09:36:26;;;;;;;8.73;3.53;;;19.60;99.90;;;;;;5072938;28;20056;-76
2022/06/12 09:39:05;;;;;;;8.20;2.95;;;19.70;99.90;;;;;;5090643;28;20055;-76
2022/06/12 09:41:42;;;;;;;7.53;3.40;;;19.90;99.90;;;;;;5060605;28;20048;-77
2022/06/12 09:44:23;;;;;;;6.00;1.80;;;19.90;99.90;;;;;;5062395;28;20079;-76
2022/06/12 09:47:09;;;;;;;5.80;1.92;;;19.90;99.90;;;;;;5064189;28;20051;-76
2022/06/12 09:50:13;;;;;;;4.85;2.08;;;20.00;99.90;;;;;;5087933;28;20044;-76
2022/06/12 09:52:49;;;;;;;6.57;2.78;;;20.00;99.90;;;;;;5020487;28;20442;-77
2022/06/12 09:55:25;;;;;;;;;;;19.90;99.90;;;;;;5076521;28;20052;-76
2022/06/12 09:58:08;;;;;;;8.67;2.60;;;19.90;99.90;;;;;;5070199;28;19949;-75
2022/06/12 10:00:53;;;;;;;8.38;3.10;;;20.10;99.90;;;;;;5076761;28;20052;-77
2022/06/12 10:03:49;;;;;;;7.95;2.83;;;20.20;99.90;;;;;;5083889;28;20627;-74
2022/06/12 10:06:32;;;;;;;3.85;1.92;;;20.10;99.90;;;;;;5083640;28;20056;-73
2022/06/12 10:09:07;;;;;;;6.15;2.20;;;19.70;99.90;;;;;;5087937;28;20043;-73
2022/06/12 10:11:38;;;;;;;6.88;2.20;;;19.50;99.90;;;;;;5072486;28;20052;-73
2022/06/12 10:14:10;;;;;;;7.40;2.30;;;19.70;99.90;;;;;;5083407;28;20094;-73
2022/06/12 10:16:50;;;;;;;5.28;2.30;;;19.80;99.90;;;;;;5087794;28;20085;-73
2022/06/12 10:19:33;;;;;;;5.53;2.10;;;20.00;99.90;;;;;;5087084;28;20043;-75
2022/06/12 10:22:07;;;;;;;7.15;2.15;;;20.00;99.90;;;;;;5085146;28;20055;-73
2022/06/12 10:24:33;;;;;;;5.55;2.22;;;19.80;99.90;;;;;;5090028;28;20146;-73
2022/06/12 10:27:00;;;;;;;7.55;2.17;;;19.70;99.90;;;;;;5065727;28;20128;-73
2022/06/12 10:29:28;;;;;;;6.35;2.03;;;19.70;99.90;;;;;;5069641;28;20469;-73
2022/06/12 10:32:01;;;;;;;5.80;1.70;;;19.70;99.90;;;;;;5090496;28;20044;-71
2022/06/12 10:34:32;;;;;;;6.50;1.90;;;19.70;99.90;;;;;;5088044;28;20052;-72
2022/06/12 10:37:15;;;;;;;5.18;2.03;;;19.70;99.90;;;;;;5082260;28;20125;-73
2022/06/12 10:39:41;;;;;;;4.68;1.92;;;19.80;99.90;;;;;;5065405;28;20399;-72
2022/06/12 10:42:27;;;;;;;5.28;1.70;;;19.80;99.90;;;;;;5088400;28;20048;-73
2022/06/12 10:44:56;;;;;;;3.97;1.65;;;19.80;99.90;;;;;;5070964;28;20591;-72
2022/06/12 10:47:24;;;;;;;4.95;1.60;;;19.80;99.90;;;;;;5094779;28;20404;-73
2022/06/12 10:50:06;;;;;;;4.68;1.63;;;19.80;99.90;;;;;;5095073;28;20044;-73
2022/06/12 10:52:33;;;;;;;4.72;1.60;;;19.80;99.90;;;;;;5089582;28;20049;-73
2022/06/12 10:55:00;;;;;;;4.85;1.50;;;20.00;99.90;;;;;;5064566;28;20127;-73
2022/06/12 10:57:37;;;;;;;4.55;1.55;;;20.10;99.90;;;;;;5094829;28;20059;-73
2022/06/12 11:00:04;;;;;;;2.72;1.13;;;20.20;99.90;;;;;;5078979;28;20049;-73
2022/06/12 11:02:35;;;;;;;2.42;1.17;;;20.30;99.90;;;;;;5086915;28;20059;-74
2022/06/12 11:05:29;;;;;;;4.50;1.58;;;20.10;99.90;;;;;;5095084;28;20152;-73
2022/06/12 11:08:17;;;;;;;4.43;1.70;;;19.90;99.90;;;;;;5092459;28;20043;-72
2022/06/12 11:11:05;;;;;;;3.88;1.52;;;20.00;99.90;;;;;;5084751;28;20056;-74
2022/06/12 11:13:55;;;;;;;4.07;1.60;;;20.20;99.90;;;;;;5082220;28;20139;-73
2022/06/12 11:16:40;;;;;;;3.28;1.50;;;20.40;99.90;;;;;;5094996;28;20123;-75
2022/06/12 11:19:30;;;;;;;5.55;1.42;;;20.50;99.90;;;;;;5091806;28;20040;-73
2022/06/12 11:22:33;;;;;;;5.03;1.65;;;20.30;99.90;;;;;;5092912;28;20108;-75
2022/06/12 11:25:02;;;;;;;3.72;1.60;;;20.20;99.90;;;;;;5075751;28;20462;-75
2022/06/12 11:27:50;;;;;;;4.07;1.42;;;20.30;99.90;;;;;;5093562;28;20141;-72
2022/06/12 11:30:47;;;;;;;3.38;1.50;;;20.60;99.90;;;;;;5093451;28;20040;-74
2022/06/12 11:33:33;;;;;;;3.78;1.30;;;20.70;99.90;;;;;;5092520;28;20449;-74
2022/06/12 11:36:19;;;;;;;3.65;1.70;;;20.50;99.90;;;;;;5015436;28;20051;-73
2022/06/12 11:39:18;;;;;;;4.00;1.55;;;20.30;99.90;;;;;;5091335;28;20067;-73
2022/06/12 11:41:50;;;;;;;3.20;1.40;;;20.20;99.90;;;;;;5091311;28;20101;-74
2022/06/12 11:44:15;;;;;;;3.47;1.10;;;20.20;99.90;;;;;;5092837;28;20055;-75
2022/06/12 11:46:51;;;;;;;2.45;1.20;;;20.30;99.90;;;;;;5093046;28;20040;-74
2022/06/12 11:49:49;;;;;;;3.05;1.05;;;20.30;99.90;;;;;;5090140;28;20042;-73
2022/06/12 11:52:25;;;;;;;1.70;0.90;;;20.50;99.90;;;;;;5073968;28;20052;-74
2022/06/12 11:54:59;;;;;;;2.58;0.77;;;20.40;99.90;;;;;;5092822;28;20090;-74
2022/06/12 11:57:48;;;;;;;4.85;1.15;;;20.40;99.90;;;;;;5091114;28;20052;-75
2022/06/12 12:00:18;;;;;;;2.03;0.90;;;20.40;99.90;;;;;;5092232;28;20077;-73
2022/06/12 12:03:21;;;;;;;3.60;1.27;;;20.50;99.90;;;;;;5074666;28;20036;-72
2022/06/12 12:06:12;;;;;;;2.30;0.90;;;20.60;99.90;;;;;;5091238;28;20044;-73
2022/06/12 12:08:38;;;;;;;3.33;1.02;;;20.60;99.90;;;;;;5073259;28;20155;-74
2022/06/12 12:11:13;;;;;;;2.60;1.10;;;20.60;99.90;;;;;;5074924;28;20721;-74
2022/06/12 12:13:45;;;;;;;2.63;0.80;;;20.70;99.90;;;;;;5091156;28;20071;-73
2022/06/12 12:16:30;;;;;;;2.90;0.98;;;20.80;99.90;;;;;;5075260;28;20048;-73
2022/06/12 12:19:06;;;;;;;3.90;1.20;;;20.70;99.90;;;;;;5074354;28;20550;-76
2022/06/12 12:21:50;;;;;;;2.45;0.90;;;20.60;99.90;;;;;;5092524;28;20052;-73
2022/06/12 12:24:25;;;;;;;3.20;0.85;;;20.60;99.90;;;;;;5092908;28;20055;-74
2022/06/12 12:26:57;;;;;;;2.75;0.75;;;20.60;99.90;;;;;;5074967;28;20048;-73
2022/06/12 12:29:28;;;;;;;2.58;1.05;;;20.40;99.90;;;;;;5090754;28;20051;-74
2022/06/12 12:31:55;;;;;;;3.67;0.90;;;20.40;99.90;;;;;;5092132;28;20044;-76
2022/06/12 12:34:24;;;;;;;2.25;1.00;;;20.50;99.90;;;;;;5092179;28;20036;-73
2022/06/12 12:42:30;;;;;;;5.07;1.33;;;20.70;99.90;;;;;;5089519;28;20165;-74
2022/06/12 12:45:08;;;;;;;2.25;0.90;;;20.60;99.90;;;;;;5091276;28;20563;-73
2022/06/12 12:47:34;;;;;;;3.55;1.02;;;20.60;99.90;;;;;;5090761;28;20496;-72
2022/06/12 12:50:13;;;;;;;3.83;1.20;;;20.60;99.90;;;;;;5091230;28;20076;-74
2022/06/12 12:52:48;;;;;;;2.85;0.93;;;20.70;99.90;;;;;;5090255;28;20040;-73
2022/06/12 12:55:33;;;;;;;2.67;1.20;;;20.60;99.90;;;;;;5090638;28;20067;-73
2022/06/12 12:58:12;;;;;;;3.85;1.10;;;20.50;99.90;;;;;;5090401;28;20117;-71
2022/06/12 13:00:38;;;;;;;3.10;1.10;;;20.50;99.90;;;;;;5089967;28;20123;-72
2022/06/12 13:03:07;;;;;;;3.20;1.13;;;20.50;99.90;;;;;;5091484;28;20444;-74
2022/06/12 13:05:55;;;;;;;3.63;1.30;;;20.50;99.90;;;;;;5092725;28;20052;-73
2022/06/12 13:08:24;;;;;;;3.58;1.15;;;20.50;99.90;;;;;;5092149;28;20146;-75
2022/06/12 13:11:11;;;;;;;2.97;1.02;;;20.50;99.90;;;;;;5091744;28;20052;-74
2022/06/12 13:13:56;;;;;;;3.40;0.88;;;20.60;99.90;;;;;;5092630;28;20058;-73
2022/06/12 13:16:24;;;;;;;3.05;1.05;;;20.70;99.90;;;;;;5074707;28;20180;-74
2022/06/12 13:19:05;;;;;;;1.90;0.85;;;20.70;99.90;;;;;;5092237;28;20047;-73
2022/06/12 13:21:48;;;;;;;2.83;1.00;;;20.80;99.90;;;;;;5091921;28;20052;-74
2022/06/12 13:24:33;;;;;;;1.92;1.10;;;20.80;99.90;;;;;;5074413;28;20479;-74
2022/06/12 13:27:19;;;;;;;2.70;1.15;;;20.70;99.90;;;;;;5092023;28;20048;-73
2022/06/12 13:29:46;;;;;;;1.65;0.70;;;20.70;99.90;;;;;;5092051;28;20477;-73
2022/06/12 13:32:22;;;;;;;3.13;1.00;;;20.70;99.90;;;;;;5092146;28;20056;-75
2022/06/12 13:35:00;;;;;;;3.65;1.20;;;20.80;99.90;;;;;;5091674;28;20798;-74
2022/06/12 13:37:29;;;;;;;3.22;1.00;;;20.90;99.90;;;;;;5071995;28;20459;-72
2022/06/12 13:39:55;;;;;;;2.88;1.08;;;21.00;99.90;;;;;;5087843;28;20052;-72
2022/06/12 13:42:24;;;;;;;2.28;0.82;;;20.90;99.90;;;;;;5071729;28;20036;-72